createdAt,value
2018-12-31T00:01:50.703Z,87.35
2018-12-31T00:06:56.387Z,87.28
2018-12-31T00:12:01.857Z,87.27
2018-12-31T00:17:07.389Z,87.05
2018-12-31T00:22:13.543Z,87.68
2018-12-31T00:27:19.083Z,87.70
2018-12-31T00:32:24.268Z,87.84
2018-12-31T00:37:30.427Z,88.07
2018-12-31T00:42:36.501Z,88.52
2018-12-31T00:47:43.700Z,87.98
2018-12-31T00:52:48.877Z,88.52
2018-12-31T00:57:54.924Z,88.33
2018-12-31T01:03:00.077Z,88.40
2018-12-31T01:08:05.241Z,88.36
2018-12-31T01:13:12.332Z,88.56
2018-12-31T01:18:17.755Z,88.23
2018-12-31T01:23:23.303Z,88.22
2018-12-31T01:28:28.953Z,88.15
2018-12-31T01:33:35.736Z,88.71
2018-12-31T01:38:40.937Z,88.08
2018-12-31T01:43:46.135Z,88.56
2018-12-31T01:48:51.565Z,88.83
2018-12-31T01:53:56.801Z,88.79
2018-12-31T01:59:02.080Z,89.16
2018-12-31T02:04:07.593Z,89.17
2018-12-31T02:09:13.217Z,89.34
2018-12-31T02:14:18.488Z,89.70
2018-12-31T02:19:23.999Z,90.18
2018-12-31T02:24:29.181Z,90.51
2018-12-31T02:29:34.974Z,90.61
2018-12-31T02:34:40.566Z,90.67
2018-12-31T02:39:45.741Z,90.81
2018-12-31T02:44:51.325Z,90.91
2018-12-31T02:49:57.442Z,90.98
2018-12-31T02:55:02.631Z,91.05
2018-12-31T03:00:08.063Z,91.03
2018-12-31T03:05:13.240Z,91.02
2018-12-31T03:10:19.800Z,91.03
2018-12-31T03:15:24.972Z,91.03
2018-12-31T03:20:30.214Z,91.17
2018-12-31T03:25:35.688Z,91.29
2018-12-31T03:30:40.861Z,91.34
2018-12-31T03:35:46.860Z,90.89
2018-12-31T03:40:52.662Z,90.80
2018-12-31T03:45:57.832Z,90.50
2018-12-31T03:51:04.121Z,90.82
2018-12-31T03:56:09.655Z,90.33
2018-12-31T04:01:15.241Z,90.03
2018-12-31T04:06:20.551Z,89.99
2018-12-31T04:11:25.715Z,90.29
2018-12-31T04:16:31.160Z,90.38
2018-12-31T04:21:37.844Z,90.06
2018-12-31T04:26:42.958Z,89.90
2018-12-31T04:31:48.296Z,89.83
2018-12-31T04:36:54.595Z,89.58
2018-12-31T04:41:59.774Z,89.84
2018-12-31T04:47:05.231Z,89.81
2018-12-31T04:52:10.525Z,89.53
2018-12-31T04:57:19.537Z,89.89
2018-12-31T05:02:25.355Z,90.13
2018-12-31T05:07:30.487Z,90.06
2018-12-31T05:12:35.604Z,89.86
2018-12-31T05:17:41.549Z,90.27
2018-12-31T05:22:46.914Z,90.55
2018-12-31T05:27:52.088Z,90.15
2018-12-31T05:32:58.296Z,90.36
2018-12-31T05:38:04.200Z,89.95
2018-12-31T05:43:11.127Z,90.32
2018-12-31T05:48:16.686Z,89.96
2018-12-31T05:53:22.315Z,90.14
2018-12-31T05:58:28.507Z,90.10
2018-12-31T06:03:33.692Z,90.39
2018-12-31T06:08:38.905Z,89.56
2018-12-31T06:13:44.087Z,89.97
2018-12-31T06:18:49.474Z,90.17
2018-12-31T06:23:56.553Z,90.21
2018-12-31T06:29:01.911Z,89.88
2018-12-31T06:34:07.636Z,90.69
2018-12-31T06:39:13.257Z,90.70
2018-12-31T06:44:18.777Z,91.21
2018-12-31T06:49:24.322Z,91.68
2018-12-31T06:54:29.895Z,92.40
2018-12-31T06:59:35.082Z,92.69
2018-12-31T07:04:40.822Z,92.82
2018-12-31T07:09:46.385Z,92.65
2018-12-31T07:14:51.641Z,92.80
2018-12-31T07:19:57.752Z,92.01
2018-12-31T07:25:02.977Z,92.79
2018-12-31T07:30:08.614Z,93.11
2018-12-31T07:35:14.416Z,93.31
2018-12-31T07:40:19.693Z,93.36
2018-12-31T07:45:25.785Z,93.69
2018-12-31T07:50:31.597Z,94.00
2018-12-31T07:55:36.782Z,94.26
2018-12-31T08:00:42.539Z,94.61
2018-12-31T08:05:47.727Z,94.91
2018-12-31T08:10:54.595Z,95.25
2018-12-31T08:15:59.835Z,95.51
2018-12-31T08:21:05.013Z,95.67
2018-12-31T08:26:10.204Z,96.07
2018-12-31T08:31:15.754Z,96.04
2018-12-31T08:36:21.837Z,96.03
2018-12-31T08:41:27.496Z,96.00
2018-12-31T08:46:33.842Z,96.00
2018-12-31T08:51:39.513Z,95.93
2018-12-31T08:56:45.111Z,95.90
2018-12-31T09:01:50.294Z,95.69
2018-12-31T09:06:56.535Z,95.64
2018-12-31T09:12:01.798Z,95.46
2018-12-31T09:17:07.211Z,95.15
2018-12-31T09:22:12.993Z,95.15
2018-12-31T09:27:19.151Z,95.11
2018-12-31T09:32:24.327Z,95.21
2018-12-31T09:37:29.887Z,95.14
2018-12-31T09:42:35.387Z,95.15
2018-12-31T09:47:40.578Z,95.39
2018-12-31T09:52:46.631Z,95.54
2018-12-31T09:57:52.107Z,95.58
2018-12-31T10:02:57.178Z,95.48
2018-12-31T10:08:03.501Z,95.51
2018-12-31T10:13:09.230Z,95.37
2018-12-31T10:18:15.366Z,95.23
2018-12-31T10:23:21.120Z,95.31
2018-12-31T10:28:28.301Z,95.29
2018-12-31T10:33:33.567Z,95.25
2018-12-31T10:38:38.774Z,95.25
2018-12-31T10:43:44.402Z,94.98
2018-12-31T10:48:50.517Z,94.89
2018-12-31T10:53:55.759Z,94.89
2018-12-31T10:59:01.330Z,94.63
2018-12-31T11:04:06.511Z,94.54
2018-12-31T11:09:11.999Z,94.81
2018-12-31T11:14:17.902Z,94.89
2018-12-31T11:19:24.267Z,94.87
2018-12-31T11:24:29.878Z,94.57
2018-12-31T11:29:35.346Z,94.48
2018-12-31T11:34:40.665Z,94.13
2018-12-31T11:39:46.809Z,93.70
2018-12-31T11:44:51.980Z,93.39
2018-12-31T11:49:57.567Z,93.16
2018-12-31T11:55:03.544Z,93.10
2018-12-31T12:00:10.758Z,93.11
2018-12-31T12:05:16.507Z,92.46
2018-12-31T12:10:22.227Z,92.44
2018-12-31T12:15:27.444Z,92.44
2018-12-31T12:20:32.623Z,92.27
2018-12-31T12:25:37.801Z,92.62
2018-12-31T12:30:43.106Z,91.80
2018-12-31T12:35:48.180Z,91.96
2018-12-31T12:40:54.661Z,91.61
2018-12-31T12:45:59.767Z,90.88
2018-12-31T12:51:05.218Z,91.18
2018-12-31T12:56:10.862Z,91.05
2018-12-31T13:01:16.322Z,90.72
2018-12-31T13:06:22.580Z,91.07
2018-12-31T13:11:28.291Z,90.99
2018-12-31T13:16:33.840Z,90.99
2018-12-31T13:21:40.428Z,90.30
2018-12-31T13:26:46.293Z,90.02
2018-12-31T13:31:52.428Z,90.76
2018-12-31T13:36:58.239Z,91.32
2018-12-31T13:42:03.914Z,91.52
2018-12-31T13:47:09.475Z,91.37
2018-12-31T13:52:14.789Z,91.04
2018-12-31T13:57:19.960Z,91.60
2018-12-31T14:02:25.182Z,91.85
2018-12-31T14:07:31.364Z,92.14
2018-12-31T14:12:36.970Z,92.63
2018-12-31T14:17:43.662Z,93.19
2018-12-31T14:22:49.318Z,93.77
2018-12-31T14:27:54.480Z,94.60
2018-12-31T14:32:59.677Z,95.49
2018-12-31T14:38:06.628Z,96.20
2018-12-31T14:43:14.063Z,96.40
2018-12-31T14:48:19.990Z,96.46
2018-12-31T14:53:25.425Z,96.75
2018-12-31T14:58:31.660Z,97.25
2018-12-31T15:03:37.181Z,97.62
2018-12-31T15:08:42.883Z,97.85
2018-12-31T15:13:48.417Z,98.06
2018-12-31T15:18:55.111Z,98.14
2018-12-31T15:24:01.129Z,98.17
2018-12-31T15:29:06.452Z,98.22
2018-12-31T15:34:11.651Z,98.22
2018-12-31T15:39:16.862Z,98.29
2018-12-31T15:44:22.056Z,98.50
2018-12-31T15:49:27.250Z,98.63
2018-12-31T15:54:32.429Z,98.80
2018-12-31T15:59:37.969Z,98.90
2018-12-31T16:04:43.170Z,98.93
2018-12-31T16:09:48.282Z,99.01
2018-12-31T16:14:53.455Z,99.10
2018-12-31T16:19:59.005Z,99.17
2018-12-31T16:25:04.338Z,99.24
2018-12-31T16:30:11.055Z,99.30
2018-12-31T16:35:16.233Z,99.33
2018-12-31T16:40:22.450Z,99.30
2018-12-31T16:45:28.332Z,99.30
2018-12-31T16:50:33.509Z,99.28
2018-12-31T16:55:39.003Z,99.22
2018-12-31T17:00:44.311Z,99.12
2018-12-31T17:05:50.251Z,99.02
2018-12-31T17:10:55.550Z,98.89
2018-12-31T17:16:02.301Z,98.89
2018-12-31T17:21:07.601Z,98.83
2018-12-31T17:26:12.855Z,98.80
2018-12-31T17:31:18.443Z,98.76
2018-12-31T17:36:23.698Z,98.71
2018-12-31T17:41:29.125Z,98.64
2018-12-31T17:46:34.308Z,98.57
2018-12-31T17:51:40.040Z,98.49
2018-12-31T17:56:45.408Z,98.46
2018-12-31T18:01:50.782Z,98.45
2018-12-31T18:06:56.870Z,98.40
2018-12-31T18:12:02.070Z,98.32
2018-12-31T18:17:07.256Z,98.18
2018-12-31T18:22:12.499Z,98.14
2018-12-31T18:27:17.946Z,97.99
2018-12-31T18:32:23.163Z,97.82
2018-12-31T18:37:28.751Z,97.85
2018-12-31T18:42:33.955Z,97.88
2018-12-31T18:47:39.470Z,97.84
2018-12-31T18:52:44.687Z,97.77
2018-12-31T18:57:49.888Z,97.71
2018-12-31T19:02:55.073Z,97.54
2018-12-31T19:08:00.260Z,97.51
2018-12-31T19:13:06.309Z,97.44
2018-12-31T19:18:12.279Z,97.31
2018-12-31T19:23:17.462Z,97.31
2018-12-31T19:28:22.735Z,97.32
2018-12-31T19:33:28.038Z,97.34
2018-12-31T19:38:33.247Z,97.20
2018-12-31T19:43:38.419Z,97.22
2018-12-31T19:48:43.595Z,97.25
2018-12-31T19:53:49.288Z,97.33
2018-12-31T19:58:55.885Z,97.29
2018-12-31T20:04:01.099Z,97.30
2018-12-31T20:09:07.219Z,97.12
2018-12-31T20:14:12.983Z,96.91
2018-12-31T20:19:18.384Z,96.55
2018-12-31T20:24:24.170Z,96.49
2018-12-31T20:29:30.366Z,96.34
2018-12-31T20:34:35.822Z,96.18
2018-12-31T20:39:41.307Z,96.17
2018-12-31T20:44:46.495Z,96.05
2018-12-31T20:49:51.791Z,95.62
2018-12-31T20:54:58.265Z,95.67
2018-12-31T21:00:03.437Z,95.73
2018-12-31T21:05:11.478Z,95.70
2018-12-31T21:10:17.158Z,95.65
2018-12-31T21:15:23.415Z,95.45
2018-12-31T21:20:28.605Z,95.67
2018-12-31T21:25:34.321Z,95.81
2018-12-31T21:30:39.674Z,95.91
2018-12-31T21:35:45.541Z,95.91
2018-12-31T21:40:51.063Z,95.91
2018-12-31T21:45:56.435Z,95.85
2018-12-31T21:51:02.297Z,95.87
2018-12-31T21:56:07.824Z,96.16
2018-12-31T22:01:14.141Z,96.23
2018-12-31T22:06:19.350Z,96.11
2018-12-31T22:11:25.619Z,95.92
2018-12-31T22:16:31.379Z,95.70
2018-12-31T22:21:36.566Z,95.27
2018-12-31T22:26:42.407Z,95.30
2018-12-31T22:31:48.981Z,95.30
2018-12-31T22:36:55.303Z,95.43
2018-12-31T22:42:00.828Z,95.49
2018-12-31T22:47:06.321Z,94.71
2018-12-31T22:52:11.495Z,93.76
2018-12-31T22:57:16.575Z,94.06
2018-12-31T23:02:22.067Z,94.50
2018-12-31T23:07:27.527Z,94.53
2018-12-31T23:12:32.626Z,94.71
2018-12-31T23:17:38.831Z,94.61
2018-12-31T23:22:44.514Z,94.35
2018-12-31T23:27:50.292Z,94.44
2018-12-31T23:32:55.404Z,94.01
2018-12-31T23:38:00.947Z,94.29
2018-12-31T23:43:06.851Z,94.00
2018-12-31T23:48:14.697Z,93.69
2018-12-31T23:53:19.804Z,93.82
2018-12-31T23:58:25.463Z,93.13
